Terminal Aerodrome Forecast
Issued by NWS San Angelo, TX

Home | Current Version | Previous Version | Text Only | Print | Product List | Glossary On
Versions: 1 2 3 4 5 6 7 8 9 10 11 12 13
000
FTUS44 KSJT 161700
TAFABI
TAF
KABI 161727Z 1618/1718 18020G30KT P6SM FEW250
     FM170200 16015KT P6SM SCT250
     FM171000 16015G23KT P6SM BKN015=

USA.gov is the U.S. government's official web portal to all federal, state and local government web resources and services.